sensor_id;sensor_type;location;lat;lon;timestamp;P1;durP1;ratioP1;P2;durP2;ratioP2
3259;SDS011;68938;48.150;14.004;2024-02-15T00:01:51;15.60;;;13.37;;
3259;SDS011;68938;48.150;14.004;2024-02-15T00:04:18;17.93;;;13.87;;
3259;SDS011;68938;48.150;14.004;2024-02-15T00:06:45;14.87;;;13.37;;
3259;SDS011;68938;48.150;14.004;2024-02-15T00:09:12;16.50;;;12.80;;
3259;SDS011;68938;48.150;14.004;2024-02-15T00:11:40;16.77;;;13.50;;
3259;SDS011;68938;48.150;14.004;2024-02-15T00:14:07;14.30;;;12.90;;
3259;SDS011;68938;48.150;14.004;2024-02-15T00:16:34;15.40;;;13.87;;
3259;SDS011;68938;48.150;14.004;2024-02-15T00:19:01;15.53;;;13.57;;
3259;SDS011;68938;48.150;14.004;2024-02-15T00:21:29;14.90;;;13.60;;
3259;SDS011;68938;48.150;14.004;2024-02-15T00:23:55;14.67;;;13.27;;
3259;SDS011;68938;48.150;14.004;2024-02-15T00:26:23;14.90;;;13.30;;
3259;SDS011;68938;48.150;14.004;2024-02-15T00:28:50;15.10;;;13.63;;
3259;SDS011;68938;48.150;14.004;2024-02-15T00:31:17;15.97;;;14.43;;
3259;SDS011;68938;48.150;14.004;2024-02-15T00:33:44;22.77;;;14.90;;
3259;SDS011;68938;48.150;14.004;2024-02-15T00:36:11;15.13;;;13.60;;
3259;SDS011;68938;48.150;14.004;2024-02-15T00:38:38;15.97;;;14.23;;
3259;SDS011;68938;48.150;14.004;2024-02-15T00:41:05;16.73;;;15.10;;
3259;SDS011;68938;48.150;14.004;2024-02-15T00:43:34;16.30;;;14.70;;
3259;SDS011;68938;48.150;14.004;2024-02-15T00:46:01;25.27;;;16.30;;
3259;SDS011;68938;48.150;14.004;2024-02-15T00:48:29;15.17;;;13.60;;
3259;SDS011;68938;48.150;14.004;2024-02-15T00:50:56;18.00;;;14.63;;
3259;SDS011;68938;48.150;14.004;2024-02-15T00:53:23;16.07;;;14.50;;
3259;SDS011;68938;48.150;14.004;2024-02-15T00:55:51;16.90;;;15.00;;
3259;SDS011;68938;48.150;14.004;2024-02-15T00:58:18;15.67;;;14.07;;
3259;SDS011;68938;48.150;14.004;2024-02-15T01:00:45;14.83;;;13.47;;
3259;SDS011;68938;48.150;14.004;2024-02-15T01:03:12;15.53;;;14.03;;
3259;SDS011;68938;48.150;14.004;2024-02-15T01:05:39;15.20;;;13.60;;
3259;SDS011;68938;48.150;14.004;2024-02-15T01:08:06;14.60;;;13.10;;
3259;SDS011;68938;48.150;14.004;2024-02-15T01:10:33;15.43;;;13.80;;
3259;SDS011;68938;48.150;14.004;2024-02-15T01:13:00;13.93;;;12.53;;
3259;SDS011;68938;48.150;14.004;2024-02-15T01:15:27;14.47;;;13.17;;
3259;SDS011;68938;48.150;14.004;2024-02-15T01:17:54;16.50;;;14.17;;
3259;SDS011;68938;48.150;14.004;2024-02-15T01:20:22;14.40;;;13.00;;
3259;SDS011;68938;48.150;14.004;2024-02-15T01:22:49;16.50;;;13.43;;
3259;SDS011;68938;48.150;14.004;2024-02-15T01:25:16;15.33;;;12.77;;
3259;SDS011;68938;48.150;14.004;2024-02-15T01:27:43;15.13;;;13.50;;
3259;SDS011;68938;48.150;14.004;2024-02-15T01:30:10;14.90;;;13.37;;
3259;SDS011;68938;48.150;14.004;2024-02-15T01:32:37;16.53;;;13.93;;
3259;SDS011;68938;48.150;14.004;2024-02-15T01:35:05;14.43;;;12.93;;
3259;SDS011;68938;48.150;14.004;2024-02-15T01:37:32;17.63;;;15.87;;
3259;SDS011;68938;48.150;14.004;2024-02-15T01:40:00;18.03;;;15.53;;
3259;SDS011;68938;48.150;14.004;2024-02-15T01:42:27;14.90;;;13.40;;
3259;SDS011;68938;48.150;14.004;2024-02-15T01:44:53;15.37;;;13.60;;
3259;SDS011;68938;48.150;14.004;2024-02-15T01:47:21;13.77;;;12.30;;
3259;SDS011;68938;48.150;14.004;2024-02-15T01:49:48;15.70;;;14.07;;
3259;SDS011;68938;48.150;14.004;2024-02-15T01:52:15;14.90;;;13.30;;
3259;SDS011;68938;48.150;14.004;2024-02-15T01:54:44;15.73;;;14.27;;
3259;SDS011;68938;48.150;14.004;2024-02-15T01:57:12;16.40;;;13.37;;
3259;SDS011;68938;48.150;14.004;2024-02-15T01:59:39;15.13;;;13.23;;
3259;SDS011;68938;48.150;14.004;2024-02-15T02:02:08;15.00;;;13.37;;
3259;SDS011;68938;48.150;14.004;2024-02-15T02:04:39;14.90;;;13.33;;
3259;SDS011;68938;48.150;14.004;2024-02-15T02:07:07;15.27;;;13.70;;
3259;SDS011;68938;48.150;14.004;2024-02-15T02:09:35;17.07;;;15.13;;
3259;SDS011;68938;48.150;14.004;2024-02-15T02:12:02;15.33;;;13.80;;
3259;SDS011;68938;48.150;14.004;2024-02-15T02:14:30;15.17;;;13.70;;
3259;SDS011;68938;48.150;14.004;2024-02-15T02:17:10;14.90;;;13.30;;
3259;SDS011;68938;48.150;14.004;2024-02-15T02:19:41;16.93;;;13.37;;
3259;SDS011;68938;48.150;14.004;2024-02-15T02:22:09;14.70;;;12.77;;
3259;SDS011;68938;48.150;14.004;2024-02-15T02:24:40;17.67;;;13.93;;
3259;SDS011;68938;48.150;14.004;2024-02-15T02:27:27;15.43;;;13.73;;
3259;SDS011;68938;48.150;14.004;2024-02-15T02:29:55;14.90;;;13.00;;
3259;SDS011;68938;48.150;14.004;2024-02-15T02:32:22;16.67;;;15.03;;
3259;SDS011;68938;48.150;14.004;2024-02-15T02:34:49;14.00;;;12.60;;
3259;SDS011;68938;48.150;14.004;2024-02-15T02:37:16;15.50;;;13.87;;
3259;SDS011;68938;48.150;14.004;2024-02-15T02:39:43;13.80;;;12.40;;
3259;SDS011;68938;48.150;14.004;2024-02-15T02:42:10;16.50;;;14.07;;
3259;SDS011;68938;48.150;14.004;2024-02-15T02:44:37;16.20;;;14.07;;
3259;SDS011;68938;48.150;14.004;2024-02-15T02:47:04;15.53;;;13.70;;
3259;SDS011;68938;48.150;14.004;2024-02-15T02:49:31;17.73;;;14.13;;
3259;SDS011;68938;48.150;14.004;2024-02-15T02:51:58;14.10;;;12.77;;
3259;SDS011;68938;48.150;14.004;2024-02-15T02:54:25;20.00;;;13.27;;
3259;SDS011;68938;48.150;14.004;2024-02-15T02:56:52;15.10;;;13.60;;
3259;SDS011;68938;48.150;14.004;2024-02-15T02:59:19;15.00;;;13.47;;
3259;SDS011;68938;48.150;14.004;2024-02-15T03:01:46;13.87;;;12.50;;
3259;SDS011;68938;48.150;14.004;2024-02-15T03:04:17;16.90;;;14.47;;
3259;SDS011;68938;48.150;14.004;2024-02-15T03:06:44;13.83;;;12.43;;
3259;SDS011;68938;48.150;14.004;2024-02-15T03:09:11;15.10;;;13.60;;
3259;SDS011;68938;48.150;14.004;2024-02-15T03:11:38;15.10;;;13.50;;
3259;SDS011;68938;48.150;14.004;2024-02-15T03:14:05;13.90;;;12.50;;
3259;SDS011;68938;48.150;14.004;2024-02-15T03:16:32;14.00;;;12.63;;
3259;SDS011;68938;48.150;14.004;2024-02-15T03:19:00;16.90;;;13.53;;
3259;SDS011;68938;48.150;14.004;2024-02-15T03:21:27;14.20;;;12.70;;
3259;SDS011;68938;48.150;14.004;2024-02-15T03:23:54;15.07;;;13.77;;
3259;SDS011;68938;48.150;14.004;2024-02-15T03:26:31;15.37;;;13.50;;
3259;SDS011;68938;48.150;14.004;2024-02-15T03:28:59;16.87;;;15.37;;
3259;SDS011;68938;48.150;14.004;2024-02-15T03:31:26;15.13;;;12.97;;
3259;SDS011;68938;48.150;14.004;2024-02-15T03:33:53;14.00;;;12.40;;
3259;SDS011;68938;48.150;14.004;2024-02-15T03:36:20;13.93;;;12.50;;
3259;SDS011;68938;48.150;14.004;2024-02-15T03:38:47;15.43;;;13.93;;
3259;SDS011;68938;48.150;14.004;2024-02-15T03:41:14;16.40;;;14.73;;
3259;SDS011;68938;48.150;14.004;2024-02-15T03:43:41;16.70;;;15.10;;
3259;SDS011;68938;48.150;14.004;2024-02-15T03:46:08;13.23;;;11.93;;
3259;SDS011;68938;48.150;14.004;2024-02-15T03:48:35;15.37;;;13.77;;
3259;SDS011;68938;48.150;14.004;2024-02-15T03:51:02;15.10;;;11.83;;
3259;SDS011;68938;48.150;14.004;2024-02-15T03:53:29;17.43;;;13.23;;
3259;SDS011;68938;48.150;14.004;2024-02-15T03:55:56;14.33;;;12.93;;
3259;SDS011;68938;48.150;14.004;2024-02-15T03:58:23;14.57;;;13.27;;
3259;SDS011;68938;48.150;14.004;2024-02-15T04:00:50;15.47;;;13.23;;
3259;SDS011;68938;48.150;14.004;2024-02-15T04:03:17;15.60;;;14.03;;
3259;SDS011;68938;48.150;14.004;2024-02-15T04:05:44;17.57;;;15.87;;
3259;SDS011;68938;48.150;14.004;2024-02-15T04:08:11;15.10;;;13.63;;
3259;SDS011;68938;48.150;14.004;2024-02-15T04:10:38;14.57;;;13.27;;
3259;SDS011;68938;48.150;14.004;2024-02-15T04:13:05;15.57;;;14.00;;
3259;SDS011;68938;48.150;14.004;2024-02-15T04:15:32;15.53;;;13.90;;
3259;SDS011;68938;48.150;14.004;2024-02-15T04:17:59;15.43;;;14.13;;
3259;SDS011;68938;48.150;14.004;2024-02-15T04:20:26;17.17;;;15.17;;
3259;SDS011;68938;48.150;14.004;2024-02-15T04:22:53;18.00;;;15.30;;
3259;SDS011;68938;48.150;14.004;2024-02-15T04:25:20;17.47;;;15.47;;
3259;SDS011;68938;48.150;14.004;2024-02-15T04:27:47;15.77;;;14.23;;
3259;SDS011;68938;48.150;14.004;2024-02-15T04:30:14;16.40;;;14.70;;
3259;SDS011;68938;48.150;14.004;2024-02-15T04:32:43;16.37;;;14.80;;
3259;SDS011;68938;48.150;14.004;2024-02-15T04:35:10;17.10;;;15.40;;
3259;SDS011;68938;48.150;14.004;2024-02-15T04:37:40;16.53;;;14.90;;
3259;SDS011;68938;48.150;14.004;2024-02-15T04:40:08;15.40;;;13.90;;
3259;SDS011;68938;48.150;14.004;2024-02-15T04:42:35;18.53;;;15.73;;
3259;SDS011;68938;48.150;14.004;2024-02-15T04:45:03;17.37;;;14.40;;
3259;SDS011;68938;48.150;14.004;2024-02-15T04:47:31;17.23;;;15.47;;
3259;SDS011;68938;48.150;14.004;2024-02-15T04:49:58;18.77;;;16.20;;
3259;SDS011;68938;48.150;14.004;2024-02-15T04:52:25;16.87;;;14.70;;
3259;SDS011;68938;48.150;14.004;2024-02-15T04:54:52;18.70;;;16.57;;
3259;SDS011;68938;48.150;14.004;2024-02-15T04:57:19;19.70;;;15.37;;
3259;SDS011;68938;48.150;14.004;2024-02-15T04:59:46;18.50;;;16.13;;
3259;SDS011;68938;48.150;14.004;2024-02-15T05:02:13;16.50;;;14.77;;
3259;SDS011;68938;48.150;14.004;2024-02-15T05:04:40;18.53;;;15.70;;
3259;SDS011;68938;48.150;14.004;2024-02-15T05:07:07;18.50;;;15.10;;
3259;SDS011;68938;48.150;14.004;2024-02-15T05:09:34;20.20;;;17.67;;
3259;SDS011;68938;48.150;14.004;2024-02-15T05:12:01;16.57;;;14.87;;
3259;SDS011;68938;48.150;14.004;2024-02-15T05:14:28;19.30;;;16.00;;
3259;SDS011;68938;48.150;14.004;2024-02-15T05:16:55;16.43;;;14.80;;
3259;SDS011;68938;48.150;14.004;2024-02-15T05:19:22;19.00;;;17.00;;
3259;SDS011;68938;48.150;14.004;2024-02-15T05:21:49;20.77;;;17.37;;
3259;SDS011;68938;48.150;14.004;2024-02-15T05:24:16;16.50;;;14.93;;
3259;SDS011;68938;48.150;14.004;2024-02-15T05:26:44;17.43;;;15.60;;
3259;SDS011;68938;48.150;14.004;2024-02-15T05:29:12;19.23;;;15.23;;
3259;SDS011;68938;48.150;14.004;2024-02-15T05:31:39;18.33;;;15.07;;
3259;SDS011;68938;48.150;14.004;2024-02-15T05:34:07;17.43;;;15.60;;
3259;SDS011;68938;48.150;14.004;2024-02-15T05:36:38;17.27;;;15.30;;
3259;SDS011;68938;48.150;14.004;2024-02-15T05:39:06;17.80;;;14.23;;
3259;SDS011;68938;48.150;14.004;2024-02-15T05:41:33;18.23;;;15.83;;
3259;SDS011;68938;48.150;14.004;2024-02-15T05:44:01;17.07;;;15.37;;
3259;SDS011;68938;48.150;14.004;2024-02-15T05:46:28;19.63;;;15.60;;
3259;SDS011;68938;48.150;14.004;2024-02-15T05:48:55;18.90;;;15.80;;
3259;SDS011;68938;48.150;14.004;2024-02-15T05:51:22;19.77;;;15.63;;
3259;SDS011;68938;48.150;14.004;2024-02-15T05:53:49;19.90;;;15.73;;
3259;SDS011;68938;48.150;14.004;2024-02-15T05:56:17;20.07;;;16.43;;
3259;SDS011;68938;48.150;14.004;2024-02-15T05:58:43;15.60;;;13.60;;
3259;SDS011;68938;48.150;14.004;2024-02-15T06:01:10;16.60;;;15.10;;
3259;SDS011;68938;48.150;14.004;2024-02-15T06:03:38;21.27;;;17.60;;
3259;SDS011;68938;48.150;14.004;2024-02-15T06:06:05;18.03;;;16.13;;
3259;SDS011;68938;48.150;14.004;2024-02-15T06:08:33;18.67;;;16.43;;
3259;SDS011;68938;48.150;14.004;2024-02-15T06:11:01;17.10;;;15.40;;
3259;SDS011;68938;48.150;14.004;2024-02-15T06:13:28;17.17;;;15.33;;
3259;SDS011;68938;48.150;14.004;2024-02-15T06:15:56;18.53;;;16.57;;
3259;SDS011;68938;48.150;14.004;2024-02-15T06:18:24;21.67;;;19.37;;
3259;SDS011;68938;48.150;14.004;2024-02-15T06:20:53;18.10;;;15.73;;
3259;SDS011;68938;48.150;14.004;2024-02-15T06:23:24;20.30;;;18.10;;
3259;SDS011;68938;48.150;14.004;2024-02-15T06:25:53;20.00;;;17.90;;
3259;SDS011;68938;48.150;14.004;2024-02-15T06:28:22;18.97;;;16.97;;
3259;SDS011;68938;48.150;14.004;2024-02-15T06:30:49;20.77;;;18.67;;
3259;SDS011;68938;48.150;14.004;2024-02-15T06:33:16;20.15;;;16.55;;
3259;SDS011;68938;48.150;14.004;2024-02-15T06:35:43;23.00;;;17.40;;
3259;SDS011;68938;48.150;14.004;2024-02-15T06:38:10;18.90;;;17.00;;
3259;SDS011;68938;48.150;14.004;2024-02-15T06:40:37;19.87;;;16.70;;
3259;SDS011;68938;48.150;14.004;2024-02-15T06:43:04;20.10;;;18.00;;
3259;SDS011;68938;48.150;14.004;2024-02-15T06:45:31;22.20;;;18.17;;
3259;SDS011;68938;48.150;14.004;2024-02-15T06:47:58;20.33;;;18.13;;
3259;SDS011;68938;48.150;14.004;2024-02-15T06:50:25;22.73;;;20.33;;
3259;SDS011;68938;48.150;14.004;2024-02-15T06:52:52;22.80;;;19.33;;
3259;SDS011;68938;48.150;14.004;2024-02-15T06:55:19;23.20;;;19.40;;
3259;SDS011;68938;48.150;14.004;2024-02-15T06:57:46;24.33;;;21.83;;
3259;SDS011;68938;48.150;14.004;2024-02-15T07:00:13;23.80;;;21.23;;
3259;SDS011;68938;48.150;14.004;2024-02-15T07:02:41;22.23;;;20.00;;
3259;SDS011;68938;48.150;14.004;2024-02-15T07:05:08;24.43;;;21.80;;
3259;SDS011;68938;48.150;14.004;2024-02-15T07:07:35;23.50;;;21.00;;
3259;SDS011;68938;48.150;14.004;2024-02-15T07:10:02;22.57;;;19.80;;
3259;SDS011;68938;48.150;14.004;2024-02-15T07:12:29;26.37;;;22.60;;
3259;SDS011;68938;48.150;14.004;2024-02-15T07:14:56;22.70;;;20.47;;
3259;SDS011;68938;48.150;14.004;2024-02-15T07:17:24;23.03;;;20.63;;
3259;SDS011;68938;48.150;14.004;2024-02-15T07:19:51;19.90;;;18.07;;
3259;SDS011;68938;48.150;14.004;2024-02-15T07:22:17;21.50;;;19.43;;
3259;SDS011;68938;48.150;14.004;2024-02-15T07:24:44;19.90;;;15.70;;
3259;SDS011;68938;48.150;14.004;2024-02-15T07:27:11;19.87;;;17.97;;
3259;SDS011;68938;48.150;14.004;2024-02-15T07:29:38;22.93;;;18.57;;
3259;SDS011;68938;48.150;14.004;2024-02-15T07:32:05;20.77;;;18.67;;
3259;SDS011;68938;48.150;14.004;2024-02-15T07:34:33;24.00;;;20.20;;
3259;SDS011;68938;48.150;14.004;2024-02-15T07:37:01;20.40;;;17.50;;
3259;SDS011;68938;48.150;14.004;2024-02-15T07:39:29;22.07;;;19.30;;
3259;SDS011;68938;48.150;14.004;2024-02-15T07:41:56;21.43;;;18.73;;
3259;SDS011;68938;48.150;14.004;2024-02-15T07:44:23;22.50;;;19.27;;
3259;SDS011;68938;48.150;14.004;2024-02-15T07:46:51;20.93;;;19.00;;
3259;SDS011;68938;48.150;14.004;2024-02-15T07:49:18;20.27;;;18.33;;
3259;SDS011;68938;48.150;14.004;2024-02-15T07:51:45;22.50;;;18.57;;
3259;SDS011;68938;48.150;14.004;2024-02-15T07:54:12;21.87;;;17.67;;
3259;SDS011;68938;48.150;14.004;2024-02-15T07:56:39;32.80;;;18.43;;
3259;SDS011;68938;48.150;14.004;2024-02-15T07:59:06;20.13;;;18.17;;
3259;SDS011;68938;48.150;14.004;2024-02-15T08:01:33;22.07;;;18.23;;
3259;SDS011;68938;48.150;14.004;2024-02-15T08:04:00;20.90;;;18.70;;
3259;SDS011;68938;48.150;14.004;2024-02-15T08:06:27;20.43;;;17.20;;
3259;SDS011;68938;48.150;14.004;2024-02-15T08:08:55;19.93;;;17.83;;
3259;SDS011;68938;48.150;14.004;2024-02-15T08:11:22;20.53;;;16.47;;
3259;SDS011;68938;48.150;14.004;2024-02-15T08:13:50;18.57;;;16.43;;
3259;SDS011;68938;48.150;14.004;2024-02-15T08:16:18;20.93;;;18.20;;
3259;SDS011;68938;48.150;14.004;2024-02-15T08:18:47;21.70;;;17.87;;
3259;SDS011;68938;48.150;14.004;2024-02-15T08:21:16;21.63;;;16.83;;
3259;SDS011;68938;48.150;14.004;2024-02-15T08:23:43;19.50;;;16.43;;
3259;SDS011;68938;48.150;14.004;2024-02-15T08:26:10;23.53;;;17.60;;
3259;SDS011;68938;48.150;14.004;2024-02-15T08:28:37;20.20;;;18.10;;
3259;SDS011;68938;48.150;14.004;2024-02-15T08:31:05;19.60;;;17.03;;
3259;SDS011;68938;48.150;14.004;2024-02-15T08:33:32;21.10;;;19.00;;
3259;SDS011;68938;48.150;14.004;2024-02-15T08:35:59;20.53;;;18.40;;
3259;SDS011;68938;48.150;14.004;2024-02-15T08:38:26;24.27;;;18.33;;
3259;SDS011;68938;48.150;14.004;2024-02-15T08:40:53;20.23;;;18.17;;
3259;SDS011;68938;48.150;14.004;2024-02-15T08:43:20;20.17;;;17.97;;
3259;SDS011;68938;48.150;14.004;2024-02-15T08:45:47;20.80;;;18.23;;
3259;SDS011;68938;48.150;14.004;2024-02-15T08:48:14;18.37;;;16.40;;
3259;SDS011;68938;48.150;14.004;2024-02-15T08:50:41;19.23;;;17.20;;
3259;SDS011;68938;48.150;14.004;2024-02-15T08:53:08;18.07;;;16.27;;
3259;SDS011;68938;48.150;14.004;2024-02-15T08:55:35;19.27;;;17.37;;
3259;SDS011;68938;48.150;14.004;2024-02-15T08:58:02;22.77;;;19.13;;
3259;SDS011;68938;48.150;14.004;2024-02-15T09:00:30;19.33;;;17.50;;
3259;SDS011;68938;48.150;14.004;2024-02-15T09:02:57;21.43;;;19.30;;
3259;SDS011;68938;48.150;14.004;2024-02-15T09:05:24;17.60;;;15.70;;
3259;SDS011;68938;48.150;14.004;2024-02-15T09:07:52;20.27;;;14.97;;
3259;SDS011;68938;48.150;14.004;2024-02-15T09:10:20;19.83;;;17.47;;
3259;SDS011;68938;48.150;14.004;2024-02-15T09:12:47;17.73;;;16.10;;
3259;SDS011;68938;48.150;14.004;2024-02-15T09:15:14;18.30;;;16.53;;
3259;SDS011;68938;48.150;14.004;2024-02-15T09:17:43;17.87;;;16.03;;
3259;SDS011;68938;48.150;14.004;2024-02-15T09:20:11;17.00;;;15.43;;
3259;SDS011;68938;48.150;14.004;2024-02-15T09:22:41;23.53;;;17.17;;
3259;SDS011;68938;48.150;14.004;2024-02-15T09:25:09;17.70;;;15.90;;
3259;SDS011;68938;48.150;14.004;2024-02-15T09:27:36;18.43;;;16.13;;
3259;SDS011;68938;48.150;14.004;2024-02-15T09:30:04;19.57;;;16.97;;
3259;SDS011;68938;48.150;14.004;2024-02-15T09:32:31;17.03;;;15.53;;
3259;SDS011;68938;48.150;14.004;2024-02-15T09:34:58;21.37;;;15.93;;
3259;SDS011;68938;48.150;14.004;2024-02-15T09:37:26;23.27;;;15.83;;
3259;SDS011;68938;48.150;14.004;2024-02-15T09:39:53;16.97;;;15.20;;
3259;SDS011;68938;48.150;14.004;2024-02-15T09:42:21;16.30;;;14.77;;
3259;SDS011;68938;48.150;14.004;2024-02-15T09:44:48;21.10;;;17.90;;
3259;SDS011;68938;48.150;14.004;2024-02-15T09:47:15;18.27;;;16.53;;
3259;SDS011;68938;48.150;14.004;2024-02-15T09:49:44;34.57;;;17.10;;
3259;SDS011;68938;48.150;14.004;2024-02-15T09:52:11;21.60;;;18.50;;
3259;SDS011;68938;48.150;14.004;2024-02-15T09:54:42;20.70;;;16.93;;
3259;SDS011;68938;48.150;14.004;2024-02-15T09:57:10;22.20;;;18.00;;
3259;SDS011;68938;48.150;14.004;2024-02-15T09:59:38;19.80;;;15.70;;
3259;SDS011;68938;48.150;14.004;2024-02-15T10:02:05;15.07;;;13.63;;
3259;SDS011;68938;48.150;14.004;2024-02-15T10:04:33;17.00;;;15.20;;
3259;SDS011;68938;48.150;14.004;2024-02-15T10:07:00;16.67;;;15.03;;
3259;SDS011;68938;48.150;14.004;2024-02-15T10:09:27;17.00;;;15.00;;
3259;SDS011;68938;48.150;14.004;2024-02-15T10:11:58;16.03;;;14.40;;
3259;SDS011;68938;48.150;14.004;2024-02-15T10:14:28;16.20;;;14.60;;
3259;SDS011;68938;48.150;14.004;2024-02-15T10:16:56;16.60;;;14.97;;
3259;SDS011;68938;48.150;14.004;2024-02-15T10:19:32;18.57;;;15.03;;
3259;SDS011;68938;48.150;14.004;2024-02-15T10:22:05;16.30;;;14.60;;
3259;SDS011;68938;48.150;14.004;2024-02-15T10:24:34;17.30;;;15.50;;
3259;SDS011;68938;48.150;14.004;2024-02-15T10:27:01;14.83;;;13.43;;
3259;SDS011;68938;48.150;14.004;2024-02-15T10:29:30;16.10;;;14.43;;
3259;SDS011;68938;48.150;14.004;2024-02-15T10:31:57;15.43;;;13.80;;
3259;SDS011;68938;48.150;14.004;2024-02-15T10:34:27;14.20;;;12.80;;
3259;SDS011;68938;48.150;14.004;2024-02-15T10:36:55;13.63;;;12.30;;
3259;SDS011;68938;48.150;14.004;2024-02-15T10:39:39;11.40;;;10.30;;
3259;SDS011;68938;48.150;14.004;2024-02-15T10:42:07;10.93;;;9.90;;
3259;SDS011;68938;48.150;14.004;2024-02-15T10:44:34;12.23;;;10.73;;
3259;SDS011;68938;48.150;14.004;2024-02-15T10:47:02;10.97;;;9.97;;
3259;SDS011;68938;48.150;14.004;2024-02-15T10:49:29;11.97;;;10.80;;
3259;SDS011;68938;48.150;14.004;2024-02-15T10:52:00;13.37;;;12.20;;
3259;SDS011;68938;48.150;14.004;2024-02-15T10:57:14;12.07;;;10.00;;
3259;SDS011;68938;48.150;14.004;2024-02-15T10:59:56;10.33;;;8.90;;
3259;SDS011;68938;48.150;14.004;2024-02-15T11:05:02;9.80;;;8.80;;
3259;SDS011;68938;48.150;14.004;2024-02-15T11:07:34;12.13;;;10.77;;
3259;SDS011;68938;48.150;14.004;2024-02-15T11:10:03;10.17;;;8.93;;
3259;SDS011;68938;48.150;14.004;2024-02-15T11:12:32;9.53;;;8.77;;
3259;SDS011;68938;48.150;14.004;2024-02-15T11:14:59;11.20;;;9.37;;
3259;SDS011;68938;48.150;14.004;2024-02-15T11:20:05;10.30;;;9.50;;
3259;SDS011;68938;48.150;14.004;2024-02-15T11:22:33;9.20;;;8.40;;
3259;SDS011;68938;48.150;14.004;2024-02-15T11:25:02;9.77;;;8.97;;
3259;SDS011;68938;48.150;14.004;2024-02-15T11:27:30;9.33;;;8.43;;
3259;SDS011;68938;48.150;14.004;2024-02-15T11:30:01;8.97;;;8.17;;
3259;SDS011;68938;48.150;14.004;2024-02-15T11:35:03;8.93;;;8.13;;
3259;SDS011;68938;48.150;14.004;2024-02-15T11:40:21;8.50;;;7.80;;
3259;SDS011;68938;48.150;14.004;2024-02-15T11:42:53;10.10;;;7.70;;
3259;SDS011;68938;48.150;14.004;2024-02-15T11:45:29;9.73;;;8.90;;
3259;SDS011;68938;48.150;14.004;2024-02-15T11:47:56;10.60;;;9.53;;
3259;SDS011;68938;48.150;14.004;2024-02-15T11:50:23;8.40;;;7.60;;
3259;SDS011;68938;48.150;14.004;2024-02-15T11:52:51;7.10;;;6.60;;
3259;SDS011;68938;48.150;14.004;2024-02-15T11:55:19;8.17;;;7.43;;
3259;SDS011;68938;48.150;14.004;2024-02-15T11:57:59;7.60;;;7.00;;
3259;SDS011;68938;48.150;14.004;2024-02-15T12:00:27;12.70;;;8.63;;
3259;SDS011;68938;48.150;14.004;2024-02-15T12:02:54;9.30;;;7.30;;
3259;SDS011;68938;48.150;14.004;2024-02-15T12:05:30;8.53;;;7.63;;
3259;SDS011;68938;48.150;14.004;2024-02-15T12:07:57;7.37;;;6.67;;
3259;SDS011;68938;48.150;14.004;2024-02-15T12:10:25;6.43;;;5.93;;
3259;SDS011;68938;48.150;14.004;2024-02-15T12:12:53;6.80;;;6.30;;
3259;SDS011;68938;48.150;14.004;2024-02-15T12:15:21;5.90;;;5.50;;
3259;SDS011;68938;48.150;14.004;2024-02-15T12:17:48;6.73;;;6.27;;
3259;SDS011;68938;48.150;14.004;2024-02-15T12:20:15;7.47;;;5.70;;
3259;SDS011;68938;48.150;14.004;2024-02-15T12:22:47;6.07;;;5.60;;
3259;SDS011;68938;48.150;14.004;2024-02-15T12:25:14;7.87;;;6.40;;
3259;SDS011;68938;48.150;14.004;2024-02-15T12:27:43;6.70;;;6.20;;
3259;SDS011;68938;48.150;14.004;2024-02-15T12:30:14;7.00;;;6.30;;
3259;SDS011;68938;48.150;14.004;2024-02-15T12:32:43;6.93;;;6.27;;
3259;SDS011;68938;48.150;14.004;2024-02-15T12:35:14;6.33;;;5.80;;
3259;SDS011;68938;48.150;14.004;2024-02-15T12:37:43;6.53;;;6.00;;
3259;SDS011;68938;48.150;14.004;2024-02-15T12:40:10;6.10;;;5.50;;
3259;SDS011;68938;48.150;14.004;2024-02-15T12:42:44;5.57;;;5.17;;
3259;SDS011;68938;48.150;14.004;2024-02-15T12:45:16;7.60;;;5.17;;
3259;SDS011;68938;48.150;14.004;2024-02-15T12:47:44;4.77;;;4.47;;
3259;SDS011;68938;48.150;14.004;2024-02-15T12:50:15;6.67;;;6.27;;
3259;SDS011;68938;48.150;14.004;2024-02-15T12:52:44;5.03;;;4.73;;
3259;SDS011;68938;48.150;14.004;2024-02-15T12:55:13;6.30;;;5.80;;
3259;SDS011;68938;48.150;14.004;2024-02-15T12:57:48;6.40;;;5.80;;
3259;SDS011;68938;48.150;14.004;2024-02-15T13:00:17;8.50;;;5.90;;
3259;SDS011;68938;48.150;14.004;2024-02-15T13:02:49;6.67;;;6.07;;
3259;SDS011;68938;48.150;14.004;2024-02-15T13:05:18;5.97;;;5.50;;
3259;SDS011;68938;48.150;14.004;2024-02-15T13:07:47;6.37;;;5.87;;
3259;SDS011;68938;48.150;14.004;2024-02-15T13:10:17;5.97;;;5.47;;
3259;SDS011;68938;48.150;14.004;2024-02-15T13:12:44;5.93;;;5.53;;
3259;SDS011;68938;48.150;14.004;2024-02-15T13:15:12;6.10;;;5.70;;
3259;SDS011;68938;48.150;14.004;2024-02-15T13:17:46;6.10;;;5.50;;
3259;SDS011;68938;48.150;14.004;2024-02-15T13:20:17;4.70;;;4.40;;
3259;SDS011;68938;48.150;14.004;2024-02-15T13:22:44;5.80;;;5.30;;
3259;SDS011;68938;48.150;14.004;2024-02-15T13:25:11;5.63;;;5.13;;
3259;SDS011;68938;48.150;14.004;2024-02-15T13:27:38;5.87;;;5.37;;
3259;SDS011;68938;48.150;14.004;2024-02-15T13:30:05;6.57;;;5.87;;
3259;SDS011;68938;48.150;14.004;2024-02-15T13:32:34;5.80;;;5.50;;
3259;SDS011;68938;48.150;14.004;2024-02-15T13:35:05;6.67;;;6.07;;
3259;SDS011;68938;48.150;14.004;2024-02-15T13:37:36;6.57;;;6.03;;
3259;SDS011;68938;48.150;14.004;2024-02-15T13:40:03;5.00;;;4.70;;
3259;SDS011;68938;48.150;14.004;2024-02-15T13:42:31;6.57;;;5.97;;
3259;SDS011;68938;48.150;14.004;2024-02-15T13:44:58;9.90;;;5.90;;
3259;SDS011;68938;48.150;14.004;2024-02-15T13:47:25;6.40;;;5.73;;
3259;SDS011;68938;48.150;14.004;2024-02-15T13:49:52;5.73;;;5.33;;
3259;SDS011;68938;48.150;14.004;2024-02-15T13:52:19;7.20;;;6.57;;
3259;SDS011;68938;48.150;14.004;2024-02-15T13:54:46;7.20;;;6.63;;
3259;SDS011;68938;48.150;14.004;2024-02-15T13:57:13;7.70;;;5.93;;
3259;SDS011;68938;48.150;14.004;2024-02-15T13:59:40;6.73;;;6.10;;
3259;SDS011;68938;48.150;14.004;2024-02-15T14:02:07;5.90;;;5.60;;
3259;SDS011;68938;48.150;14.004;2024-02-15T14:04:34;6.57;;;5.50;;
3259;SDS011;68938;48.150;14.004;2024-02-15T14:07:01;5.27;;;4.97;;
3259;SDS011;68938;48.150;14.004;2024-02-15T14:09:28;5.33;;;4.90;;
3259;SDS011;68938;48.150;14.004;2024-02-15T14:11:55;5.77;;;5.30;;
3259;SDS011;68938;48.150;14.004;2024-02-15T14:14:22;7.13;;;6.43;;
3259;SDS011;68938;48.150;14.004;2024-02-15T14:16:49;5.60;;;5.30;;
3259;SDS011;68938;48.150;14.004;2024-02-15T14:19:16;6.73;;;6.03;;
3259;SDS011;68938;48.150;14.004;2024-02-15T14:21:43;6.40;;;5.90;;
3259;SDS011;68938;48.150;14.004;2024-02-15T14:24:10;5.73;;;5.33;;
3259;SDS011;68938;48.150;14.004;2024-02-15T14:26:37;5.93;;;4.97;;
3259;SDS011;68938;48.150;14.004;2024-02-15T14:29:04;6.97;;;6.30;;
3259;SDS011;68938;48.150;14.004;2024-02-15T14:31:31;5.43;;;5.03;;
3259;SDS011;68938;48.150;14.004;2024-02-15T14:33:58;5.67;;;5.23;;
3259;SDS011;68938;48.150;14.004;2024-02-15T14:36:25;5.90;;;5.50;;
3259;SDS011;68938;48.150;14.004;2024-02-15T14:38:53;5.90;;;5.50;;
3259;SDS011;68938;48.150;14.004;2024-02-15T14:41:20;7.13;;;6.37;;
3259;SDS011;68938;48.150;14.004;2024-02-15T14:43:58;6.20;;;5.70;;
3259;SDS011;68938;48.150;14.004;2024-02-15T14:46:25;6.47;;;6.00;;